sensor_id;sensor_type;location;lat;lon;timestamp;temperature;humidity
20045;DHT22;10183;47.808;9.476;2022-12-10T00:01:06;0.30;99.90
20045;DHT22;10183;47.808;9.476;2022-12-10T00:03:32;0.30;99.90
20045;DHT22;10183;47.808;9.476;2022-12-10T00:06:01;0.40;99.90
20045;DHT22;10183;47.808;9.476;2022-12-10T00:08:27;0.40;99.90
20045;DHT22;10183;47.808;9.476;2022-12-10T00:10:55;0.40;99.90
20045;DHT22;10183;47.808;9.476;2022-12-10T00:13:22;0.40;99.90
20045;DHT22;10183;47.808;9.476;2022-12-10T00:15:48;0.50;99.90
20045;DHT22;10183;47.808;9.476;2022-12-10T00:18:14;0.50;99.90
20045;DHT22;10183;47.808;9.476;2022-12-10T00:20:41;0.50;99.90
20045;DHT22;10183;47.808;9.476;2022-12-10T00:23:07;0.50;99.90
20045;DHT22;10183;47.808;9.476;2022-12-10T00:25:33;0.40;99.90
20045;DHT22;10183;47.808;9.476;2022-12-10T00:28:00;0.40;99.90
20045;DHT22;10183;47.808;9.476;2022-12-10T00:30:26;0.50;99.90
20045;DHT22;10183;47.808;9.476;2022-12-10T00:32:52;0.40;99.90
20045;DHT22;10183;47.808;9.476;2022-12-10T00:35:18;0.40;99.90
20045;DHT22;10183;47.808;9.476;2022-12-10T00:37:44;0.40;99.90
20045;DHT22;10183;47.808;9.476;2022-12-10T00:40:11;0.40;99.90
20045;DHT22;10183;47.808;9.476;2022-12-10T00:42:37;0.50;99.90
20045;DHT22;10183;47.808;9.476;2022-12-10T00:45:04;0.40;99.90
20045;DHT22;10183;47.808;9.476;2022-12-10T00:47:30;0.40;99.90
20045;DHT22;10183;47.808;9.476;2022-12-10T00:49:58;0.40;99.90
20045;DHT22;10183;47.808;9.476;2022-12-10T00:52:24;0.40;99.90
20045;DHT22;10183;47.808;9.476;2022-12-10T00:54:50;0.40;99.90
20045;DHT22;10183;47.808;9.476;2022-12-10T00:57:16;0.40;99.90
20045;DHT22;10183;47.808;9.476;2022-12-10T00:59:43;0.30;99.90
20045;DHT22;10183;47.808;9.476;2022-12-10T01:02:09;0.20;99.90
20045;DHT22;10183;47.808;9.476;2022-12-10T01:04:36;0.20;99.90
20045;DHT22;10183;47.808;9.476;2022-12-10T01:07:02;-0.10;99.90
20045;DHT22;10183;47.808;9.476;2022-12-10T01:09:29;0.00;99.90
20045;DHT22;10183;47.808;9.476;2022-12-10T01:11:57;0.00;99.90
20045;DHT22;10183;47.808;9.476;2022-12-10T01:14:31;0.10;99.90
20045;DHT22;10183;47.808;9.476;2022-12-10T01:17:00;0.10;99.90
20045;DHT22;10183;47.808;9.476;2022-12-10T01:19:31;0.20;99.90
20045;DHT22;10183;47.808;9.476;2022-12-10T01:21:58;0.20;99.90
20045;DHT22;10183;47.808;9.476;2022-12-10T01:24:26;0.30;99.90
20045;DHT22;10183;47.808;9.476;2022-12-10T01:26:53;0.30;99.90
20045;DHT22;10183;47.808;9.476;2022-12-10T01:29:21;0.30;99.90
20045;DHT22;10183;47.808;9.476;2022-12-10T01:31:51;0.30;99.90
20045;DHT22;10183;47.808;9.476;2022-12-10T01:34:17;0.30;99.90
20045;DHT22;10183;47.808;9.476;2022-12-10T01:36:45;0.30;99.90
20045;DHT22;10183;47.808;9.476;2022-12-10T01:39:15;0.30;99.90
20045;DHT22;10183;47.808;9.476;2022-12-10T01:41:48;0.30;99.90
20045;DHT22;10183;47.808;9.476;2022-12-10T01:46:43;0.40;99.90
20045;DHT22;10183;47.808;9.476;2022-12-10T01:49:18;0.40;99.90
20045;DHT22;10183;47.808;9.476;2022-12-10T01:51:49;0.40;99.90
20045;DHT22;10183;47.808;9.476;2022-12-10T01:54:25;0.40;99.90
20045;DHT22;10183;47.808;9.476;2022-12-10T01:57:03;0.40;99.90
20045;DHT22;10183;47.808;9.476;2022-12-10T01:59:31;0.40;99.90
20045;DHT22;10183;47.808;9.476;2022-12-10T02:02:16;0.30;99.90
20045;DHT22;10183;47.808;9.476;2022-12-10T02:10:23;0.30;99.90
20045;DHT22;10183;47.808;9.476;2022-12-10T02:12:57;0.20;99.90
20045;DHT22;10183;47.808;9.476;2022-12-10T02:15:31;0.20;99.90
20045;DHT22;10183;47.808;9.476;2022-12-10T02:18:05;0.20;99.90
20045;DHT22;10183;47.808;9.476;2022-12-10T02:20:43;0.30;99.90
20045;DHT22;10183;47.808;9.476;2022-12-10T02:23:25;0.30;99.90
20045;DHT22;10183;47.808;9.476;2022-12-10T02:25:54;0.30;99.90
20045;DHT22;10183;47.808;9.476;2022-12-10T02:30:52;0.40;99.90
20045;DHT22;10183;47.808;9.476;2022-12-10T02:33:19;0.40;99.90
20045;DHT22;10183;47.808;9.476;2022-12-10T02:35:48;0.40;99.90
20045;DHT22;10183;47.808;9.476;2022-12-10T02:38:28;0.40;99.90
20045;DHT22;10183;47.808;9.476;2022-12-10T02:41:01;0.30;99.90
20045;DHT22;10183;47.808;9.476;2022-12-10T02:43:29;0.50;99.90
20045;DHT22;10183;47.808;9.476;2022-12-10T02:45:57;0.40;99.90
20045;DHT22;10183;47.808;9.476;2022-12-10T02:48:24;0.50;99.90
20045;DHT22;10183;47.808;9.476;2022-12-10T02:50:51;0.50;99.90
20045;DHT22;10183;47.808;9.476;2022-12-10T02:53:17;0.50;99.90
20045;DHT22;10183;47.808;9.476;2022-12-10T02:56:00;0.40;99.90
20045;DHT22;10183;47.808;9.476;2022-12-10T02:58:43;0.40;99.90
20045;DHT22;10183;47.808;9.476;2022-12-10T03:04:14;0.40;99.90
20045;DHT22;10183;47.808;9.476;2022-12-10T03:06:47;0.40;99.90
20045;DHT22;10183;47.808;9.476;2022-12-10T03:09:23;0.40;99.90
20045;DHT22;10183;47.808;9.476;2022-12-10T03:11:59;0.40;99.90
20045;DHT22;10183;47.808;9.476;2022-12-10T03:14:30;0.40;99.90
20045;DHT22;10183;47.808;9.476;2022-12-10T03:16:59;0.40;99.90
20045;DHT22;10183;47.808;9.476;2022-12-10T03:19:47;0.30;99.90
20045;DHT22;10183;47.808;9.476;2022-12-10T03:22:16;0.30;99.90
20045;DHT22;10183;47.808;9.476;2022-12-10T03:24:43;0.30;99.90
20045;DHT22;10183;47.808;9.476;2022-12-10T03:27:11;0.30;99.90
20045;DHT22;10183;47.808;9.476;2022-12-10T03:29:54;0.30;99.90
20045;DHT22;10183;47.808;9.476;2022-12-10T03:32:24;0.40;99.90
20045;DHT22;10183;47.808;9.476;2022-12-10T03:34:53;0.40;99.90
20045;DHT22;10183;47.808;9.476;2022-12-10T03:37:21;0.40;99.90
20045;DHT22;10183;47.808;9.476;2022-12-10T03:39:49;0.40;99.90
20045;DHT22;10183;47.808;9.476;2022-12-10T03:42:15;0.40;99.90
20045;DHT22;10183;47.808;9.476;2022-12-10T03:44:41;0.30;99.90
20045;DHT22;10183;47.808;9.476;2022-12-10T03:47:11;0.30;99.90
20045;DHT22;10183;47.808;9.476;2022-12-10T03:49:38;0.30;99.90
20045;DHT22;10183;47.808;9.476;2022-12-10T03:52:04;0.30;99.90
20045;DHT22;10183;47.808;9.476;2022-12-10T03:54:30;0.40;99.90
20045;DHT22;10183;47.808;9.476;2022-12-10T03:56:56;0.40;99.90
20045;DHT22;10183;47.808;9.476;2022-12-10T03:59:23;0.40;99.90
20045;DHT22;10183;47.808;9.476;2022-12-10T04:01:49;0.40;99.90
20045;DHT22;10183;47.808;9.476;2022-12-10T04:04:15;0.40;99.90
20045;DHT22;10183;47.808;9.476;2022-12-10T04:06:42;0.40;99.90
20045;DHT22;10183;47.808;9.476;2022-12-10T04:09:12;0.40;99.90
20045;DHT22;10183;47.808;9.476;2022-12-10T04:11:39;0.40;99.90
20045;DHT22;10183;47.808;9.476;2022-12-10T04:14:05;0.40;99.90
20045;DHT22;10183;47.808;9.476;2022-12-10T04:16:50;0.40;99.90
20045;DHT22;10183;47.808;9.476;2022-12-10T04:19:17;0.40;99.90
20045;DHT22;10183;47.808;9.476;2022-12-10T04:21:45;0.40;99.90
20045;DHT22;10183;47.808;9.476;2022-12-10T04:24:32;0.30;99.90
20045;DHT22;10183;47.808;9.476;2022-12-10T04:29:55;0.30;99.90
20045;DHT22;10183;47.808;9.476;2022-12-10T04:32:22;0.30;99.90
20045;DHT22;10183;47.808;9.476;2022-12-10T04:34:49;0.30;99.90
20045;DHT22;10183;47.808;9.476;2022-12-10T04:37:16;0.30;99.90
20045;DHT22;10183;47.808;9.476;2022-12-10T04:39:42;0.30;99.90
20045;DHT22;10183;47.808;9.476;2022-12-10T04:42:08;0.30;99.90
20045;DHT22;10183;47.808;9.476;2022-12-10T04:44:35;0.30;99.90
20045;DHT22;10183;47.808;9.476;2022-12-10T04:47:04;0.30;99.90
20045;DHT22;10183;47.808;9.476;2022-12-10T04:49:30;0.20;99.90
20045;DHT22;10183;47.808;9.476;2022-12-10T04:51:56;0.20;99.90
20045;DHT22;10183;47.808;9.476;2022-12-10T04:54:23;0.20;99.90
20045;DHT22;10183;47.808;9.476;2022-12-10T04:56:49;0.20;99.90
20045;DHT22;10183;47.808;9.476;2022-12-10T04:59:15;0.20;99.90
20045;DHT22;10183;47.808;9.476;2022-12-10T05:01:42;0.30;99.90
20045;DHT22;10183;47.808;9.476;2022-12-10T05:04:11;0.20;99.90
20045;DHT22;10183;47.808;9.476;2022-12-10T05:06:38;0.30;99.90
20045;DHT22;10183;47.808;9.476;2022-12-10T05:09:05;0.30;99.90
20045;DHT22;10183;47.808;9.476;2022-12-10T05:11:32;0.30;99.90
20045;DHT22;10183;47.808;9.476;2022-12-10T05:13:59;0.30;99.90
20045;DHT22;10183;47.808;9.476;2022-12-10T05:16:28;0.30;99.90
20045;DHT22;10183;47.808;9.476;2022-12-10T05:18:55;0.30;99.90
20045;DHT22;10183;47.808;9.476;2022-12-10T05:21:23;0.30;99.90
20045;DHT22;10183;47.808;9.476;2022-12-10T05:23:51;0.20;99.90
20045;DHT22;10183;47.808;9.476;2022-12-10T05:26:19;0.30;99.90
20045;DHT22;10183;47.808;9.476;2022-12-10T05:28:53;0.30;99.90
20045;DHT22;10183;47.808;9.476;2022-12-10T05:31:23;0.30;99.90
20045;DHT22;10183;47.808;9.476;2022-12-10T05:33:50;0.30;99.90
20045;DHT22;10183;47.808;9.476;2022-12-10T05:36:18;0.40;99.90
20045;DHT22;10183;47.808;9.476;2022-12-10T05:38:45;0.30;99.90
20045;DHT22;10183;47.808;9.476;2022-12-10T05:41:23;0.30;99.90
20045;DHT22;10183;47.808;9.476;2022-12-10T05:43:50;0.40;99.90
20045;DHT22;10183;47.808;9.476;2022-12-10T05:46:19;0.30;99.90
20045;DHT22;10183;47.808;9.476;2022-12-10T05:48:46;0.30;99.90
20045;DHT22;10183;47.808;9.476;2022-12-10T05:51:18;0.30;99.90
20045;DHT22;10183;47.808;9.476;2022-12-10T05:53:45;0.30;99.90
20045;DHT22;10183;47.808;9.476;2022-12-10T05:56:14;0.30;99.90
20045;DHT22;10183;47.808;9.476;2022-12-10T05:58:42;0.40;99.90
20045;DHT22;10183;47.808;9.476;2022-12-10T06:01:12;0.40;99.90
20045;DHT22;10183;47.808;9.476;2022-12-10T06:03:38;0.40;99.90
20045;DHT22;10183;47.808;9.476;2022-12-10T06:06:05;0.30;99.90
20045;DHT22;10183;47.808;9.476;2022-12-10T06:08:32;0.30;99.90
20045;DHT22;10183;47.808;9.476;2022-12-10T06:11:03;0.40;99.90
20045;DHT22;10183;47.808;9.476;2022-12-10T06:13:29;0.30;99.90
20045;DHT22;10183;47.808;9.476;2022-12-10T06:15:55;0.30;99.90
20045;DHT22;10183;47.808;9.476;2022-12-10T06:18:22;0.40;99.90
20045;DHT22;10183;47.808;9.476;2022-12-10T06:20:48;0.40;99.90
20045;DHT22;10183;47.808;9.476;2022-12-10T06:23:14;0.40;99.90
20045;DHT22;10183;47.808;9.476;2022-12-10T06:25:41;0.40;99.90
20045;DHT22;10183;47.808;9.476;2022-12-10T06:28:07;0.40;99.90
20045;DHT22;10183;47.808;9.476;2022-12-10T06:30:34;0.40;99.90
20045;DHT22;10183;47.808;9.476;2022-12-10T06:33:01;0.30;99.90
20045;DHT22;10183;47.808;9.476;2022-12-10T06:35:27;0.30;99.90
20045;DHT22;10183;47.808;9.476;2022-12-10T06:37:53;0.40;99.90
20045;DHT22;10183;47.808;9.476;2022-12-10T06:40:19;0.40;99.90
20045;DHT22;10183;47.808;9.476;2022-12-10T06:42:46;0.30;99.90
20045;DHT22;10183;47.808;9.476;2022-12-10T06:45:12;0.30;99.90
20045;DHT22;10183;47.808;9.476;2022-12-10T06:47:38;0.30;99.90
20045;DHT22;10183;47.808;9.476;2022-12-10T06:50:05;0.30;99.90
20045;DHT22;10183;47.808;9.476;2022-12-10T06:52:31;0.30;99.90
20045;DHT22;10183;47.808;9.476;2022-12-10T06:54:57;0.30;99.90
20045;DHT22;10183;47.808;9.476;2022-12-10T06:57:23;0.30;99.90
20045;DHT22;10183;47.808;9.476;2022-12-10T06:59:49;0.30;99.90
20045;DHT22;10183;47.808;9.476;2022-12-10T07:02:16;0.30;99.90
20045;DHT22;10183;47.808;9.476;2022-12-10T07:04:42;0.30;99.90
20045;DHT22;10183;47.808;9.476;2022-12-10T07:07:08;0.40;99.90
20045;DHT22;10183;47.808;9.476;2022-12-10T07:09:34;0.30;99.90
20045;DHT22;10183;47.808;9.476;2022-12-10T07:12:00;0.20;99.90
20045;DHT22;10183;47.808;9.476;2022-12-10T07:14:26;0.20;99.90
20045;DHT22;10183;47.808;9.476;2022-12-10T07:16:53;0.20;99.90
20045;DHT22;10183;47.808;9.476;2022-12-10T07:19:19;0.30;99.90
20045;DHT22;10183;47.808;9.476;2022-12-10T07:21:45;0.40;99.90
20045;DHT22;10183;47.808;9.476;2022-12-10T07:24:16;0.40;99.90
20045;DHT22;10183;47.808;9.476;2022-12-10T07:26:44;0.40;99.90
20045;DHT22;10183;47.808;9.476;2022-12-10T07:29:16;0.40;99.90
20045;DHT22;10183;47.808;9.476;2022-12-10T07:31:43;0.40;99.90
20045;DHT22;10183;47.808;9.476;2022-12-10T07:34:10;0.40;99.90
20045;DHT22;10183;47.808;9.476;2022-12-10T07:36:37;0.40;99.90
20045;DHT22;10183;47.808;9.476;2022-12-10T07:39:05;0.40;99.90
20045;DHT22;10183;47.808;9.476;2022-12-10T07:41:32;0.30;99.90
20045;DHT22;10183;47.808;9.476;2022-12-10T07:43:58;0.30;99.90
20045;DHT22;10183;47.808;9.476;2022-12-10T07:46:28;0.20;99.90
20045;DHT22;10183;47.808;9.476;2022-12-10T07:48:55;0.20;99.90
20045;DHT22;10183;47.808;9.476;2022-12-10T07:51:22;0.20;99.90
20045;DHT22;10183;47.808;9.476;2022-12-10T07:53:51;0.20;99.90
20045;DHT22;10183;47.808;9.476;2022-12-10T07:56:19;0.20;99.90
20045;DHT22;10183;47.808;9.476;2022-12-10T07:58:47;0.20;99.90
20045;DHT22;10183;47.808;9.476;2022-12-10T08:01:16;0.30;99.90
20045;DHT22;10183;47.808;9.476;2022-12-10T08:03:43;0.30;99.90
20045;DHT22;10183;47.808;9.476;2022-12-10T08:06:14;0.30;99.90
20045;DHT22;10183;47.808;9.476;2022-12-10T08:08:42;0.40;99.90
20045;DHT22;10183;47.808;9.476;2022-12-10T08:11:08;0.30;99.90
20045;DHT22;10183;47.808;9.476;2022-12-10T08:13:35;0.40;99.90
20045;DHT22;10183;47.808;9.476;2022-12-10T08:16:07;0.40;99.90
20045;DHT22;10183;47.808;9.476;2022-12-10T08:18:34;0.40;99.90
20045;DHT22;10183;47.808;9.476;2022-12-10T08:21:08;0.30;99.90
20045;DHT22;10183;47.808;9.476;2022-12-10T08:23:35;0.30;99.90
20045;DHT22;10183;47.808;9.476;2022-12-10T08:26:13;0.30;99.90
20045;DHT22;10183;47.808;9.476;2022-12-10T08:28:40;0.30;99.90
20045;DHT22;10183;47.808;9.476;2022-12-10T08:31:08;0.30;99.90
20045;DHT22;10183;47.808;9.476;2022-12-10T08:33:36;0.30;99.90
20045;DHT22;10183;47.808;9.476;2022-12-10T08:36:05;0.40;99.90
20045;DHT22;10183;47.808;9.476;2022-12-10T08:38:32;0.40;99.90
20045;DHT22;10183;47.808;9.476;2022-12-10T08:40:59;0.50;99.90
20045;DHT22;10183;47.808;9.476;2022-12-10T08:43:25;0.50;99.90
20045;DHT22;10183;47.808;9.476;2022-12-10T08:45:51;0.50;99.90
20045;DHT22;10183;47.808;9.476;2022-12-10T08:48:17;0.50;99.90
20045;DHT22;10183;47.808;9.476;2022-12-10T08:50:44;0.60;99.90
20045;DHT22;10183;47.808;9.476;2022-12-10T08:53:10;0.60;99.90
20045;DHT22;10183;47.808;9.476;2022-12-10T08:55:40;0.60;99.90
20045;DHT22;10183;47.808;9.476;2022-12-10T08:58:06;0.70;99.90
20045;DHT22;10183;47.808;9.476;2022-12-10T09:00:34;0.70;99.90
20045;DHT22;10183;47.808;9.476;2022-12-10T09:03:00;0.70;99.90
20045;DHT22;10183;47.808;9.476;2022-12-10T09:05:27;0.70;99.90
20045;DHT22;10183;47.808;9.476;2022-12-10T09:07:53;0.70;99.90
20045;DHT22;10183;47.808;9.476;2022-12-10T09:10:19;0.60;99.90
20045;DHT22;10183;47.808;9.476;2022-12-10T09:12:46;0.70;99.90
20045;DHT22;10183;47.808;9.476;2022-12-10T09:15:12;0.70;99.90
20045;DHT22;10183;47.808;9.476;2022-12-10T09:17:38;0.70;99.90
20045;DHT22;10183;47.808;9.476;2022-12-10T09:20:05;0.70;99.90
20045;DHT22;10183;47.808;9.476;2022-12-10T09:22:31;0.80;99.90
20045;DHT22;10183;47.808;9.476;2022-12-10T09:24:58;0.70;99.90
20045;DHT22;10183;47.808;9.476;2022-12-10T09:27:24;0.80;99.90
20045;DHT22;10183;47.808;9.476;2022-12-10T09:29:50;0.80;99.90
20045;DHT22;10183;47.808;9.476;2022-12-10T09:32:17;0.80;99.90
20045;DHT22;10183;47.808;9.476;2022-12-10T09:34:43;0.80;99.90
20045;DHT22;10183;47.808;9.476;2022-12-10T09:37:09;0.90;99.90
20045;DHT22;10183;47.808;9.476;2022-12-10T09:39:36;0.80;99.90
20045;DHT22;10183;47.808;9.476;2022-12-10T09:45:03;0.90;99.90
20045;DHT22;10183;47.808;9.476;2022-12-10T09:47:44;0.90;99.90
20045;DHT22;10183;47.808;9.476;2022-12-10T09:53:08;0.80;99.90
20045;DHT22;10183;47.808;9.476;2022-12-10T09:55:42;0.90;99.90
20045;DHT22;10183;47.808;9.476;2022-12-10T09:58:21;1.00;99.90
20045;DHT22;10183;47.808;9.476;2022-12-10T10:00:52;1.10;99.90
20045;DHT22;10183;47.808;9.476;2022-12-10T10:03:19;1.10;99.90
20045;DHT22;10183;47.808;9.476;2022-12-10T10:05:49;1.10;99.90
20045;DHT22;10183;47.808;9.476;2022-12-10T10:10:58;1.00;99.90
20045;DHT22;10183;47.808;9.476;2022-12-10T10:13:34;0.90;99.90
20045;DHT22;10183;47.808;9.476;2022-12-10T10:18:52;0.90;99.90
20045;DHT22;10183;47.808;9.476;2022-12-10T10:21:24;1.00;99.90
20045;DHT22;10183;47.808;9.476;2022-12-10T10:23:51;0.90;99.90
20045;DHT22;10183;47.808;9.476;2022-12-10T10:26:18;0.90;99.90
20045;DHT22;10183;47.808;9.476;2022-12-10T10:28:44;0.90;99.90
20045;DHT22;10183;47.808;9.476;2022-12-10T10:31:24;0.90;99.90
20045;DHT22;10183;47.808;9.476;2022-12-10T10:33:55;0.90;99.90
20045;DHT22;10183;47.808;9.476;2022-12-10T10:36:27;1.00;99.90
20045;DHT22;10183;47.808;9.476;2022-12-10T10:38:54;0.90;99.90
20045;DHT22;10183;47.808;9.476;2022-12-10T10:41:23;1.00;99.90
20045;DHT22;10183;47.808;9.476;2022-12-10T10:43:58;1.10;99.90
20045;DHT22;10183;47.808;9.476;2022-12-10T10:46:25;1.10;99.90
20045;DHT22;10183;47.808;9.476;2022-12-10T10:48:52;1.10;99.90
20045;DHT22;10183;47.808;9.476;2022-12-10T10:51:42;1.10;99.90
20045;DHT22;10183;47.808;9.476;2022-12-10T10:54:10;0.90;99.90
20045;DHT22;10183;47.808;9.476;2022-12-10T10:56:43;1.00;99.90
20045;DHT22;10183;47.808;9.476;2022-12-10T11:01:50;0.90;99.90
20045;DHT22;10183;47.808;9.476;2022-12-10T11:04:19;0.80;99.90
20045;DHT22;10183;47.808;9.476;2022-12-10T11:06:50;0.70;99.90
20045;DHT22;10183;47.808;9.476;2022-12-10T11:09:30;0.80;99.90
20045;DHT22;10183;47.808;9.476;2022-12-10T11:12:53;0.90;99.90
20045;DHT22;10183;47.808;9.476;2022-12-10T11:14:52;0.80;99.90
20045;DHT22;10183;47.808;9.476;2022-12-10T11:17:21;1.00;99.90
20045;DHT22;10183;47.808;9.476;2022-12-10T11:20:00;0.90;99.90
20045;DHT22;10183;47.808;9.476;2022-12-10T11:22:33;0.80;99.90
20045;DHT22;10183;47.808;9.476;2022-12-10T11:25:00;0.70;99.90
20045;DHT22;10183;47.808;9.476;2022-12-10T11:27:38;0.70;99.90
20045;DHT22;10183;47.808;9.476;2022-12-10T11:30:18;0.60;99.90
20045;DHT22;10183;47.808;9.476;2022-12-10T11:33:25;0.70;99.90
20045;DHT22;10183;47.808;9.476;2022-12-10T11:41:33;0.60;99.90
20045;DHT22;10183;47.808;9.476;2022-12-10T11:44:38;0.80;99.90
20045;DHT22;10183;47.808;9.476;2022-12-10T11:47:21;0.80;99.90
20045;DHT22;10183;47.808;9.476;2022-12-10T11:49:55;0.70;99.90
20045;DHT22;10183;47.808;9.476;2022-12-10T11:55:40;1.00;99.90
20045;DHT22;10183;47.808;9.476;2022-12-10T12:01:22;0.90;99.90
20045;DHT22;10183;47.808;9.476;2022-12-10T12:10:15;0.80;99.90
20045;DHT22;10183;47.808;9.476;2022-12-10T12:16:14;0.70;99.90
20045;DHT22;10183;47.808;9.476;2022-12-10T12:21:40;1.00;99.90
20045;DHT22;10183;47.808;9.476;2022-12-10T12:24:25;0.80;99.90
20045;DHT22;10183;47.808;9.476;2022-12-10T12:27:02;0.80;99.90
20045;DHT22;10183;47.808;9.476;2022-12-10T12:29:33;0.70;99.90
20045;DHT22;10183;47.808;9.476;2022-12-10T12:32:02;0.70;99.90
20045;DHT22;10183;47.808;9.476;2022-12-10T12:34:50;0.80;99.90
20045;DHT22;10183;47.808;9.476;2022-12-10T12:37:20;0.70;99.90
20045;DHT22;10183;47.808;9.476;2022-12-10T12:40:09;0.70;99.90
20045;DHT22;10183;47.808;9.476;2022-12-10T12:42:48;0.70;99.90
20045;DHT22;10183;47.808;9.476;2022-12-10T12:46:00;0.50;99.90
20045;DHT22;10183;47.808;9.476;2022-12-10T12:53:30;0.80;99.90
20045;DHT22;10183;47.808;9.476;2022-12-10T13:01:28;0.70;99.90
20045;DHT22;10183;47.808;9.476;2022-12-10T13:03:58;0.50;99.90
20045;DHT22;10183;47.808;9.476;2022-12-10T13:06:25;0.30;99.90
20045;DHT22;10183;47.808;9.476;2022-12-10T13:11:38;0.10;99.90
20045;DHT22;10183;47.808;9.476;2022-12-10T13:22:06;0.10;99.90
20045;DHT22;10183;47.808;9.476;2022-12-10T13:25:18;0.10;99.90
20045;DHT22;10183;47.808;9.476;2022-12-10T13:27:35;0.20;99.90
20045;DHT22;10183;47.808;9.476;2022-12-10T13:49:12;0.20;99.90
20045;DHT22;10183;47.808;9.476;2022-12-10T13:52:05;0.10;99.90
20045;DHT22;10183;47.808;9.476;2022-12-10T14:07:42;-0.20;99.90
20045;DHT22;10183;47.808;9.476;2022-12-10T14:10:15;-0.20;99.90
20045;DHT22;10183;47.808;9.476;2022-12-10T14:12:42;-0.30;99.90
20045;DHT22;10183;47.808;9.476;2022-12-10T14:17:43;-0.50;99.90
20045;DHT22;10183;47.808;9.476;2022-12-10T14:20:36;-0.50;99.90
20045;DHT22;10183;47.808;9.476;2022-12-10T14:23:24;-0.50;99.90
20045;DHT22;10183;47.808;9.476;2022-12-10T14:26:16;-0.50;99.90
20045;DHT22;10183;47.808;9.476;2022-12-10T14:28:55;-0.50;99.90
20045;DHT22;10183;47.808;9.476;2022-12-10T14:31:38;-0.50;99.90
20045;DHT22;10183;47.808;9.476;2022-12-10T14:34:07;-0.50;99.90
20045;DHT22;10183;47.808;9.476;2022-12-10T14:36:37;-0.50;99.90
20045;DHT22;10183;47.808;9.476;2022-12-10T14:39:14;-0.40;99.90
20045;DHT22;10183;47.808;9.476;2022-12-10T14:41:41;-0.50;99.90
20045;DHT22;10183;47.808;9.476;2022-12-10T14:44:14;-0.50;99.90
20045;DHT22;10183;47.808;9.476;2022-12-10T14:46:41;-0.60;99.90
20045;DHT22;10183;47.808;9.476;2022-12-10T14:49:27;-0.70;99.90
20045;DHT22;10183;47.808;9.476;2022-12-10T14:51:56;-0.70;99.90
20045;DHT22;10183;47.808;9.476;2022-12-10T14:54:34;-0.70;99.90
20045;DHT22;10183;47.808;9.476;2022-12-10T14:57:06;-0.70;99.90
20045;DHT22;10183;47.808;9.476;2022-12-10T15:00:25;-0.60;99.90
20045;DHT22;10183;47.808;9.476;2022-12-10T15:02:32;-0.60;99.90
20045;DHT22;10183;47.808;9.476;2022-12-10T15:05:00;-0.50;99.90
20045;DHT22;10183;47.808;9.476;2022-12-10T15:07:31;-0.60;99.90
20045;DHT22;10183;47.808;9.476;2022-12-10T15:10:02;-0.60;99.90
20045;DHT22;10183;47.808;9.476;2022-12-10T15:12:35;-0.60;99.90
20045;DHT22;10183;47.808;9.476;2022-12-10T15:15:41;-0.70;99.90
20045;DHT22;10183;47.808;9.476;2022-12-10T15:18:09;-0.70;99.90
20045;DHT22;10183;47.808;9.476;2022-12-10T15:20:44;-0.70;99.90
20045;DHT22;10183;47.808;9.476;2022-12-10T15:23:30;-0.70;99.90
20045;DHT22;10183;47.808;9.476;2022-12-10T15:28:24;-0.70;99.90
20045;DHT22;10183;47.808;9.476;2022-12-10T15:30:51;-0.60;99.90
20045;DHT22;10183;47.808;9.476;2022-12-10T15:33:37;-0.60;99.90
20045;DHT22;10183;47.808;9.476;2022-12-10T15:36:05;-0.70;99.90
20045;DHT22;10183;47.808;9.476;2022-12-10T15:38:31;-0.80;99.90
20045;DHT22;10183;47.808;9.476;2022-12-10T15:41:10;-0.80;99.90
20045;DHT22;10183;47.808;9.476;2022-12-10T15:43:58;-0.90;99.90
20045;DHT22;10183;47.808;9.476;2022-12-10T15:46:26;-0.90;99.90
20045;DHT22;10183;47.808;9.476;2022-12-10T15:48:52;-0.90;99.90
20045;DHT22;10183;47.808;9.476;2022-12-10T15:51:18;-0.80;99.90
20045;DHT22;10183;47.808;9.476;2022-12-10T15:53:45;-0.80;99.90
20045;DHT22;10183;47.808;9.476;2022-12-10T15:56:11;-0.80;99.90
20045;DHT22;10183;47.808;9.476;2022-12-10T15:58:42;-0.80;99.90
20045;DHT22;10183;47.808;9.476;2022-12-10T16:01:12;-0.80;99.90
20045;DHT22;10183;47.808;9.476;2022-12-10T16:03:39;-0.80;99.90
20045;DHT22;10183;47.808;9.476;2022-12-10T16:06:07;-0.80;99.90
20045;DHT22;10183;47.808;9.476;2022-12-10T16:08:33;-0.80;99.90
20045;DHT22;10183;47.808;9.476;2022-12-10T16:11:17;-0.80;99.90
20045;DHT22;10183;47.808;9.476;2022-12-10T16:13:49;-0.80;99.90
20045;DHT22;10183;47.808;9.476;2022-12-10T16:16:17;-0.70;99.90
20045;DHT22;10183;47.808;9.476;2022-12-10T16:18:43;-0.70;99.90
20045;DHT22;10183;47.808;9.476;2022-12-10T16:21:10;-0.70;99.90
20045;DHT22;10183;47.808;9.476;2022-12-10T16:23:36;-0.80;99.90
20045;DHT22;10183;47.808;9.476;2022-12-10T16:26:11;-0.90;99.90
20045;DHT22;10183;47.808;9.476;2022-12-10T16:28:38;-1.00;99.90
20045;DHT22;10183;47.808;9.476;2022-12-10T16:31:07;-1.00;99.90
20045;DHT22;10183;47.808;9.476;2022-12-10T16:33:34;-1.10;99.90
20045;DHT22;10183;47.808;9.476;2022-12-10T16:36:00;-1.10;99.90
20045;DHT22;10183;47.808;9.476;2022-12-10T16:38:28;-1.10;99.90
20045;DHT22;10183;47.808;9.476;2022-12-10T16:40:54;-1.20;99.90
20045;DHT22;10183;47.808;9.476;2022-12-10T16:43:23;-1.20;99.90
20045;DHT22;10183;47.808;9.476;2022-12-10T16:45:50;-1.10;99.90
20045;DHT22;10183;47.808;9.476;2022-12-10T16:48:17;-1.20;99.90
20045;DHT22;10183;47.808;9.476;2022-12-10T16:50:45;-1.20;99.90
20045;DHT22;10183;47.808;9.476;2022-12-10T16:55:38;-1.20;99.90
20045;DHT22;10183;47.808;9.476;2022-12-10T16:58:07;-1.20;99.90
20045;DHT22;10183;47.808;9.476;2022-12-10T17:00:35;-1.20;99.90
20045;DHT22;10183;47.808;9.476;2022-12-10T17:03:02;-1.20;99.90
20045;DHT22;10183;47.808;9.476;2022-12-10T17:05:39;-1.10;99.90
20045;DHT22;10183;47.808;9.476;2022-12-10T17:08:08;-1.10;99.90
20045;DHT22;10183;47.808;9.476;2022-12-10T17:10:34;-1.00;99.90
20045;DHT22;10183;47.808;9.476;2022-12-10T17:13:22;-1.00;99.90
20045;DHT22;10183;47.808;9.476;2022-12-10T17:15:49;-1.10;99.90
20045;DHT22;10183;47.808;9.476;2022-12-10T17:18:17;-1.10;99.90
20045;DHT22;10183;47.808;9.476;2022-12-10T17:20:44;-1.10;99.90
20045;DHT22;10183;47.808;9.476;2022-12-10T17:23:11;-1.10;99.90
20045;DHT22;10183;47.808;9.476;2022-12-10T17:25:38;-1.20;99.90
20045;DHT22;10183;47.808;9.476;2022-12-10T17:28:06;-1.20;99.90
20045;DHT22;10183;47.808;9.476;2022-12-10T17:30:32;-1.20;99.90
20045;DHT22;10183;47.808;9.476;2022-12-10T17:32:59;-1.10;99.90
20045;DHT22;10183;47.808;9.476;2022-12-10T17:35:25;-1.10;99.90
20045;DHT22;10183;47.808;9.476;2022-12-10T17:37:51;-1.10;99.90
20045;DHT22;10183;47.808;9.476;2022-12-10T17:40:21;-1.10;99.90
20045;DHT22;10183;47.808;9.476;2022-12-10T17:42:48;-1.20;99.90
20045;DHT22;10183;47.808;9.476;2022-12-10T17:45:17;-1.20;99.90
20045;DHT22;10183;47.808;9.476;2022-12-10T17:47:44;-1.20;99.90
20045;DHT22;10183;47.808;9.476;2022-12-10T17:50:37;-1.10;99.90
20045;DHT22;10183;47.808;9.476;2022-12-10T17:53:05;-1.10;99.90
20045;DHT22;10183;47.808;9.476;2022-12-10T17:55:36;-1.10;99.90
20045;DHT22;10183;47.808;9.476;2022-12-10T17:58:04;-1.10;99.90